createdAt,value
2019-04-03T00:00:17.736Z,0.00
2019-04-03T00:01:17.822Z,0.00
2019-04-03T00:02:17.726Z,0.00
2019-04-03T00:03:17.743Z,0.00
2019-04-03T00:04:17.714Z,0.00
2019-04-03T00:05:17.678Z,0.00
2019-04-03T00:06:17.680Z,0.00
2019-04-03T00:07:18.466Z,0.00
2019-04-03T00:08:17.702Z,0.00
2019-04-03T00:09:17.649Z,0.00
2019-04-03T00:10:17.641Z,0.00
2019-04-03T00:11:17.646Z,0.00
2019-04-03T00:12:17.598Z,0.00
2019-04-03T00:13:18.444Z,0.00
2019-04-03T00:14:17.650Z,0.00
2019-04-03T00:15:17.572Z,0.00
2019-04-03T00:16:17.600Z,0.00
2019-04-03T00:17:17.551Z,0.00
2019-04-03T00:18:17.531Z,0.00
2019-04-03T00:19:18.115Z,0.00
2019-04-03T00:20:18.418Z,0.00
2019-04-03T00:21:17.749Z,0.00
2019-04-03T00:22:17.541Z,0.00
2019-04-03T00:23:17.590Z,0.00
2019-04-03T00:24:17.464Z,0.00
2019-04-03T00:25:17.461Z,0.00
2019-04-03T00:26:17.453Z,0.00
2019-04-03T00:27:17.435Z,0.00
2019-04-03T00:28:17.463Z,0.00
2019-04-03T00:29:17.400Z,0.00
2019-04-03T00:30:17.398Z,0.00
2019-04-03T00:31:17.379Z,0.00
2019-04-03T00:32:17.391Z,0.00
2019-04-03T00:33:17.376Z,0.00
2019-04-03T00:34:17.376Z,0.00
2019-04-03T00:35:17.350Z,0.00
2019-04-03T00:36:17.328Z,0.00
2019-04-03T00:37:17.317Z,0.00
2019-04-03T00:38:17.333Z,0.00
2019-04-03T00:39:17.298Z,0.00
2019-04-03T00:40:17.305Z,0.00
2019-04-03T00:41:17.272Z,0.00
2019-04-03T00:42:17.260Z,0.00
2019-04-03T00:43:17.253Z,0.00
2019-04-03T00:44:17.243Z,0.00
2019-04-03T00:45:17.280Z,0.00
2019-04-03T00:46:17.244Z,0.00
2019-04-03T00:47:17.199Z,0.00
2019-04-03T00:48:17.199Z,0.00
2019-04-03T00:49:17.226Z,0.00
2019-04-03T00:50:17.167Z,0.00
2019-04-03T00:51:17.221Z,0.00
2019-04-03T00:52:17.166Z,0.00
2019-04-03T00:53:17.137Z,0.00
2019-04-03T00:54:17.128Z,0.00
2019-04-03T00:55:17.115Z,0.00
2019-04-03T00:56:17.098Z,0.00
2019-04-03T00:57:17.088Z,0.00
2019-04-03T00:58:17.097Z,0.00
2019-04-03T00:59:17.104Z,0.00
2019-04-03T01:00:17.052Z,0.00
2019-04-03T01:01:17.042Z,0.00
2019-04-03T01:02:17.034Z,0.00
2019-04-03T01:03:17.018Z,0.00
2019-04-03T01:04:17.020Z,0.00
2019-04-03T01:05:17.027Z,0.00
2019-04-03T01:06:16.988Z,0.00
2019-04-03T01:07:16.984Z,0.00
2019-04-03T01:08:16.969Z,0.00
2019-04-03T01:09:17.123Z,0.00
2019-04-03T01:10:17.031Z,0.00
2019-04-03T01:11:16.946Z,0.00
2019-04-03T01:12:16.964Z,0.00
2019-04-03T01:13:16.992Z,0.00
2019-04-03T01:14:16.902Z,0.00
2019-04-03T01:15:17.102Z,0.00
2019-04-03T01:16:16.880Z,0.00
2019-04-03T01:17:16.898Z,0.00
2019-04-03T01:18:16.880Z,0.00
2019-04-03T01:19:16.840Z,0.00
2019-04-03T01:20:16.832Z,0.00
2019-04-03T01:21:16.852Z,0.00
2019-04-03T01:22:16.808Z,0.00
2019-04-03T01:23:16.792Z,0.00
2019-04-03T01:24:16.811Z,0.00
2019-04-03T01:25:16.801Z,0.00
2019-04-03T01:26:16.765Z,0.00
2019-04-03T01:27:16.760Z,0.00
2019-04-03T01:28:16.751Z,0.00
2019-04-03T01:29:16.740Z,0.00
2019-04-03T01:30:16.735Z,0.00
2019-04-03T01:31:16.709Z,0.00
2019-04-03T01:32:16.815Z,0.00
2019-04-03T01:33:17.171Z,0.00
2019-04-03T01:34:17.814Z,0.00
2019-04-03T01:35:17.377Z,0.00
2019-04-03T01:36:17.584Z,0.00
2019-04-03T01:37:16.820Z,0.00
2019-04-03T01:38:19.093Z,0.00
2019-04-03T01:39:16.616Z,0.00
2019-04-03T01:40:16.616Z,0.00
2019-04-03T01:41:16.601Z,0.00
2019-04-03T01:42:16.614Z,0.00
2019-04-03T01:43:16.720Z,0.00
2019-04-03T01:44:16.569Z,0.00
2019-04-03T01:45:16.551Z,0.00
2019-04-03T01:46:16.543Z,0.00
2019-04-03T01:47:16.650Z,0.00
2019-04-03T01:48:16.535Z,0.00
2019-04-03T01:49:16.506Z,0.00
2019-04-03T01:50:16.493Z,0.00
2019-04-03T01:51:16.485Z,0.00
2019-04-03T01:52:16.492Z,0.00
2019-04-03T01:53:16.598Z,0.00
2019-04-03T01:54:16.497Z,0.00
2019-04-03T01:55:16.489Z,0.00
2019-04-03T01:56:16.432Z,0.00
2019-04-03T01:57:16.433Z,0.00
2019-04-03T01:58:16.404Z,0.00
2019-04-03T01:59:16.394Z,0.00
2019-04-03T02:00:16.410Z,0.00
2019-04-03T02:01:16.538Z,0.00
2019-04-03T02:02:16.390Z,0.00
2019-04-03T02:03:16.347Z,0.00
2019-04-03T02:04:16.335Z,0.00
2019-04-03T02:05:16.338Z,0.00
2019-04-03T02:06:16.335Z,0.00
2019-04-03T02:07:16.298Z,0.00
2019-04-03T02:08:16.330Z,0.00
2019-04-03T02:09:16.387Z,0.00
2019-04-03T02:10:17.789Z,0.00
2019-04-03T02:11:16.787Z,0.00
2019-04-03T02:12:16.287Z,0.00
2019-04-03T02:13:16.260Z,0.00
2019-04-03T02:14:16.237Z,0.00
2019-04-03T02:15:16.215Z,0.00
2019-04-03T02:16:16.211Z,0.00
2019-04-03T02:17:16.210Z,0.00
2019-04-03T02:18:16.238Z,0.00
2019-04-03T02:19:16.239Z,0.00
2019-04-03T02:20:16.149Z,0.00
2019-04-03T02:21:16.150Z,0.00
2019-04-03T02:22:16.134Z,0.00
2019-04-03T02:23:16.134Z,0.00
2019-04-03T02:24:16.107Z,0.00
2019-04-03T02:25:16.261Z,0.00
2019-04-03T02:26:16.104Z,0.00
2019-04-03T02:27:16.089Z,0.00
2019-04-03T02:28:16.078Z,0.00
2019-04-03T02:29:16.051Z,0.00
2019-04-03T02:30:16.134Z,0.00
2019-04-03T02:31:19.108Z,0.00
2019-04-03T02:32:16.129Z,0.00
2019-04-03T02:33:16.188Z,0.00
2019-04-03T02:34:16.020Z,0.00
2019-04-03T02:35:16.007Z,0.00
2019-04-03T02:36:15.980Z,0.00
2019-04-03T02:37:16.914Z,0.00
2019-04-03T02:38:15.965Z,0.00
2019-04-03T02:39:16.127Z,0.00
2019-04-03T02:40:15.972Z,0.00
2019-04-03T02:41:15.929Z,0.00
2019-04-03T02:42:15.910Z,0.00
2019-04-03T02:43:15.908Z,0.00
2019-04-03T02:44:17.985Z,0.00
2019-04-03T02:45:15.871Z,0.00
2019-04-03T02:46:15.902Z,0.00
2019-04-03T02:47:16.453Z,0.00
2019-04-03T02:48:16.065Z,0.00
2019-04-03T02:49:15.840Z,0.00
2019-04-03T02:50:15.840Z,0.00
2019-04-03T02:51:17.016Z,0.00
2019-04-03T02:52:15.815Z,0.00
2019-04-03T02:53:15.825Z,0.00
2019-04-03T02:54:15.777Z,0.00
2019-04-03T02:55:15.821Z,0.00
2019-04-03T02:56:15.815Z,0.00
2019-04-03T02:57:17.751Z,0.00
2019-04-03T02:58:16.270Z,0.00
2019-04-03T02:59:15.759Z,0.00
2019-04-03T03:00:15.832Z,0.00
2019-04-03T03:01:15.703Z,0.00
2019-04-03T03:02:15.695Z,0.00
2019-04-03T03:03:17.281Z,0.00
2019-04-03T03:04:15.699Z,0.00
2019-04-03T03:05:15.650Z,0.00
2019-04-03T03:06:15.651Z,0.00
2019-04-03T03:07:15.650Z,0.00
2019-04-03T03:08:15.728Z,0.00
2019-04-03T03:09:15.613Z,0.00
2019-04-03T03:10:18.610Z,0.00
2019-04-03T03:11:15.696Z,0.00
2019-04-03T03:12:15.711Z,0.00
2019-04-03T03:13:15.765Z,0.00
2019-04-03T03:14:25.204Z,0.00
2019-04-03T03:15:15.660Z,0.00
2019-04-03T03:16:18.102Z,0.00
2019-04-03T03:17:15.580Z,0.00
2019-04-03T03:18:15.732Z,0.00
2019-04-03T03:19:15.531Z,0.00
2019-04-03T03:20:15.505Z,0.00
2019-04-03T03:21:15.475Z,0.00
2019-04-03T03:22:18.096Z,0.00
2019-04-03T03:23:15.516Z,0.00
2019-04-03T03:24:15.564Z,0.00
2019-04-03T03:25:15.466Z,0.00
2019-04-03T03:26:15.419Z,0.00
2019-04-03T03:27:15.557Z,0.00
2019-04-03T03:28:15.403Z,0.00
2019-04-03T03:29:19.228Z,0.00
2019-04-03T03:30:34.306Z,0.00
2019-04-03T03:31:16.421Z,0.00
2019-04-03T03:32:21.338Z,0.00
2019-04-03T03:33:33.656Z,0.00
2019-04-03T03:34:16.845Z,0.00
2019-04-03T03:35:22.964Z,0.00
2019-04-03T03:36:22.718Z,0.00
2019-04-03T03:37:16.617Z,0.00
2019-04-03T03:38:15.287Z,0.00
2019-04-03T03:39:15.275Z,0.00
2019-04-03T03:40:16.142Z,0.00
2019-04-03T03:41:15.337Z,0.00
2019-04-03T03:42:15.260Z,0.00
2019-04-03T03:43:15.597Z,0.00
2019-04-03T03:44:15.222Z,0.00
2019-04-03T03:45:18.455Z,0.00
2019-04-03T03:46:16.473Z,0.00
2019-04-03T03:47:15.213Z,0.00
2019-04-03T03:48:15.212Z,0.00
2019-04-03T03:49:17.484Z,0.00
2019-04-03T03:50:15.178Z,0.00
2019-04-03T03:51:16.030Z,0.00
2019-04-03T03:52:15.315Z,0.00
2019-04-03T03:53:15.451Z,0.00
2019-04-03T03:54:18.380Z,0.00
2019-04-03T03:55:15.106Z,0.00
2019-04-03T03:56:15.221Z,0.00
2019-04-03T03:57:15.352Z,0.00
2019-04-03T03:58:15.089Z,0.00
2019-04-03T03:59:17.692Z,0.00
2019-04-03T04:00:15.050Z,0.00
2019-04-03T04:01:15.235Z,0.00
2019-04-03T04:02:15.020Z,0.00
2019-04-03T04:03:15.010Z,0.00
2019-04-03T04:04:16.062Z,0.00
2019-04-03T04:05:15.222Z,0.00
2019-04-03T04:06:15.000Z,0.00
2019-04-03T04:07:14.960Z,0.00
2019-04-03T04:08:15.200Z,0.00
2019-04-03T04:09:17.456Z,0.00
2019-04-03T04:10:15.349Z,0.00
2019-04-03T04:11:14.928Z,0.00
2019-04-03T04:12:15.261Z,0.00
2019-04-03T04:13:15.913Z,0.00
2019-04-03T04:14:15.015Z,0.00
2019-04-03T04:15:14.889Z,0.00
2019-04-03T04:16:15.043Z,4.00
2019-04-03T04:17:17.351Z,4.00
2019-04-03T04:18:15.515Z,4.00
2019-04-03T04:19:14.832Z,0.00
2019-04-03T04:20:14.824Z,4.00
2019-04-03T04:21:14.853Z,4.00
2019-04-03T04:22:16.607Z,4.00
2019-04-03T04:23:15.521Z,4.00
2019-04-03T04:24:14.775Z,4.00
2019-04-03T04:25:14.762Z,8.00
2019-04-03T04:26:15.149Z,8.00
2019-04-03T04:27:14.733Z,8.00
2019-04-03T04:28:14.797Z,8.00
2019-04-03T04:29:14.850Z,8.00
2019-04-03T04:30:14.695Z,12.00
2019-04-03T04:31:14.704Z,12.00
2019-04-03T04:32:15.342Z,12.00
2019-04-03T04:33:14.918Z,16.00
2019-04-03T04:34:14.653Z,20.00
2019-04-03T04:35:14.643Z,20.00
2019-04-03T04:36:14.653Z,20.00
2019-04-03T04:37:14.746Z,24.00
2019-04-03T04:38:14.610Z,28.00
2019-04-03T04:39:14.597Z,28.00
2019-04-03T04:40:14.596Z,28.00
2019-04-03T04:41:14.672Z,32.00
2019-04-03T04:42:14.561Z,36.00
2019-04-03T04:43:14.615Z,40.00
2019-04-03T04:44:15.205Z,44.00
2019-04-03T04:45:14.542Z,48.00
2019-04-03T04:46:26.739Z,48.00
2019-04-03T04:48:25.989Z,56.00
2019-04-03T04:49:35.567Z,64.00
2019-04-03T04:50:25.822Z,68.00
2019-04-03T04:51:26.386Z,72.00
2019-04-03T04:52:27.513Z,76.00
2019-04-03T04:53:25.859Z,80.00
2019-04-03T04:54:25.693Z,88.00
2019-04-03T04:55:25.671Z,92.00
2019-04-03T04:56:25.690Z,96.00
2019-04-03T04:57:25.656Z,104.00
2019-04-03T04:58:25.631Z,112.00
2019-04-03T04:59:25.896Z,116.00
2019-04-03T05:00:25.621Z,124.00
2019-04-03T05:01:25.611Z,132.00
2019-04-03T05:02:25.715Z,136.00
2019-04-03T05:03:25.678Z,148.00
2019-04-03T05:04:25.699Z,156.00
2019-04-03T05:05:27.218Z,168.00
2019-04-03T05:06:26.999Z,180.00
2019-04-03T05:07:25.539Z,192.00
2019-04-03T05:08:25.523Z,200.00
2019-04-03T05:09:25.533Z,216.00
2019-04-03T05:10:25.504Z,224.00
2019-04-03T05:11:25.482Z,240.00
2019-04-03T05:12:25.493Z,252.00
2019-04-03T05:13:25.483Z,272.00
2019-04-03T05:14:25.460Z,292.00
2019-04-03T05:15:25.440Z,312.00
2019-04-03T05:16:25.711Z,332.00
2019-04-03T05:17:27.248Z,348.00
2019-04-03T05:18:25.624Z,360.00
2019-04-03T05:19:25.407Z,376.00
2019-04-03T05:20:25.385Z,388.00
2019-04-03T05:21:25.390Z,400.00
2019-04-03T05:22:25.380Z,420.00
2019-04-03T05:23:26.106Z,432.00
2019-04-03T05:24:25.379Z,448.00
2019-04-03T05:25:25.357Z,464.00
2019-04-03T05:26:25.320Z,484.00
2019-04-03T05:27:25.366Z,492.00
2019-04-03T05:28:25.299Z,504.00
2019-04-03T05:29:25.327Z,512.00
2019-04-03T05:30:25.283Z,520.00
2019-04-03T05:31:25.363Z,528.00
2019-04-03T05:32:25.263Z,528.00
2019-04-03T05:33:25.238Z,532.00
2019-04-03T05:34:25.234Z,540.00
2019-04-03T05:35:25.238Z,540.00
2019-04-03T05:36:25.206Z,544.00
2019-04-03T05:37:25.193Z,556.00
2019-04-03T05:38:25.187Z,564.00
2019-04-03T05:39:25.204Z,568.00
2019-04-03T05:40:26.201Z,576.00
2019-04-03T05:41:27.658Z,584.00
2019-04-03T05:42:25.158Z,600.00
2019-04-03T05:43:25.119Z,612.00
2019-04-03T05:44:25.283Z,624.00
2019-04-03T05:45:25.117Z,636.00
2019-04-03T05:46:25.164Z,652.00
2019-04-03T05:47:25.083Z,668.00
2019-04-03T05:48:25.084Z,676.00
2019-04-03T05:49:25.074Z,688.00
2019-04-03T05:50:26.457Z,700.00
2019-04-03T05:51:25.044Z,712.00
2019-04-03T05:52:25.047Z,732.00
2019-04-03T05:53:25.014Z,744.00
2019-04-03T05:54:25.010Z,772.00
2019-04-03T05:55:24.991Z,784.00
2019-04-03T05:56:24.982Z,792.00
2019-04-03T05:57:28.344Z,816.00
2019-04-03T05:58:25.279Z,840.00
2019-04-03T05:59:24.956Z,868.00
2019-04-03T06:00:24.928Z,896.00
2019-04-03T06:01:24.941Z,920.00
2019-04-03T06:02:25.102Z,936.00
2019-04-03T06:03:38.641Z,968.00
2019-04-03T06:04:28.510Z,996.00
2019-04-03T06:05:24.895Z,1036.00
2019-04-03T06:06:25.676Z,1080.00
2019-04-03T06:07:33.578Z,1116.00
2019-04-03T06:08:24.986Z,1144.00
2019-04-03T06:09:24.989Z,1176.00
2019-04-03T06:10:27.318Z,1236.00
2019-04-03T06:11:25.014Z,1240.00
2019-04-03T06:12:24.877Z,1212.00
2019-04-03T06:13:24.800Z,1192.00
2019-04-03T06:14:24.798Z,1172.00
2019-04-03T06:15:25.029Z,1176.00
2019-04-03T06:16:25.022Z,1188.00
2019-04-03T06:17:24.753Z,1196.00
2019-04-03T06:18:26.552Z,1208.00
2019-04-03T06:19:24.751Z,1452.00
2019-04-03T06:20:24.710Z,1240.00
2019-04-03T06:21:24.729Z,1248.00
2019-04-03T06:22:24.808Z,1388.00
2019-04-03T06:23:24.696Z,1540.00
2019-04-03T06:24:25.028Z,1864.00
2019-04-03T06:25:28.921Z,1720.00
2019-04-03T06:26:25.670Z,1432.00
2019-04-03T06:27:27.432Z,1384.00
2019-04-03T06:28:24.645Z,1356.00
2019-04-03T06:29:24.620Z,1368.00
2019-04-03T06:30:25.757Z,1480.00
2019-04-03T06:31:26.482Z,2096.00
2019-04-03T06:32:25.099Z,4004.00
2019-04-03T06:33:24.596Z,4148.00
2019-04-03T06:34:24.717Z,2840.00
2019-04-03T06:35:24.538Z,2124.00
2019-04-03T06:36:24.519Z,1936.00
2019-04-03T06:37:24.518Z,2224.00
2019-04-03T06:38:25.192Z,3696.00
2019-04-03T06:39:27.428Z,5420.00
2019-04-03T06:40:25.495Z,7400.00
2019-04-03T06:41:24.722Z,8336.00
2019-04-03T06:42:24.466Z,8628.00
2019-04-03T06:43:24.457Z,8420.00
2019-04-03T06:44:24.483Z,7952.00
2019-04-03T06:45:26.151Z,9184.00
2019-04-03T06:46:24.409Z,9012.00
2019-04-03T06:47:24.439Z,8520.00
2019-04-03T06:48:24.401Z,7036.00
2019-04-03T06:49:24.526Z,6952.00
2019-04-03T06:50:24.401Z,8848.00
2019-04-03T06:51:24.652Z,9944.00
2019-04-03T06:52:24.483Z,10708.00
2019-04-03T06:53:27.758Z,11364.00
2019-04-03T06:54:24.507Z,11424.00
2019-04-03T06:55:25.349Z,8432.00
2019-04-03T06:56:24.324Z,5848.00
2019-04-03T06:57:24.317Z,3364.00
2019-04-03T06:58:29.674Z,3104.00
2019-04-03T06:59:24.282Z,3164.00
2019-04-03T07:00:24.524Z,3028.00
2019-04-03T07:01:24.306Z,3004.00
2019-04-03T07:02:27.119Z,2904.00
2019-04-03T07:03:45.254Z,2904.00
2019-04-03T07:04:24.223Z,2912.00
2019-04-03T07:05:27.058Z,2868.00
2019-04-03T07:06:24.274Z,2740.00
2019-04-03T07:07:33.598Z,2472.00
2019-04-03T07:08:32.924Z,2544.00
2019-04-03T07:09:34.007Z,2596.00
2019-04-03T07:10:26.105Z,2752.00
2019-04-03T07:11:24.251Z,2720.00
2019-04-03T07:12:24.165Z,2824.00
2019-04-03T07:13:24.106Z,2816.00
2019-04-03T07:14:26.229Z,2988.00
2019-04-03T07:15:25.179Z,2840.00
2019-04-03T07:16:24.132Z,2900.00
2019-04-03T07:17:24.098Z,3060.00
2019-04-03T07:18:24.073Z,2896.00
2019-04-03T07:19:24.217Z,2952.00
2019-04-03T07:20:24.047Z,2928.00
2019-04-03T07:21:27.136Z,2852.00
2019-04-03T07:22:24.062Z,2888.00
2019-04-03T07:23:24.003Z,2896.00
2019-04-03T07:24:24.284Z,2920.00
2019-04-03T07:25:23.977Z,2980.00
2019-04-03T07:26:24.153Z,3220.00
2019-04-03T07:27:23.957Z,3496.00
2019-04-03T07:28:24.161Z,3580.00
2019-04-03T07:29:25.554Z,3440.00
2019-04-03T07:30:24.069Z,3436.00
2019-04-03T07:31:24.497Z,3456.00
2019-04-03T07:32:25.859Z,3524.00
2019-04-03T07:33:24.090Z,3520.00
2019-04-03T07:34:24.163Z,3488.00
2019-04-03T07:35:23.951Z,3400.00
2019-04-03T07:36:23.862Z,3384.00
2019-04-03T07:37:23.836Z,3384.00
2019-04-03T07:38:23.840Z,3400.00
2019-04-03T07:39:23.833Z,3468.00
2019-04-03T07:40:23.809Z,3540.00
2019-04-03T07:41:23.804Z,3592.00
2019-04-03T07:42:24.557Z,3588.00
2019-04-03T07:43:26.126Z,3632.00
2019-04-03T07:44:23.759Z,3636.00
2019-04-03T07:45:23.752Z,3600.00
2019-04-03T07:46:23.741Z,3556.00
2019-04-03T07:47:23.728Z,3524.00
2019-04-03T07:48:23.955Z,3492.00
2019-04-03T07:49:23.726Z,3508.00
2019-04-03T07:50:23.703Z,3524.00
2019-04-03T07:51:23.824Z,3524.00
2019-04-03T07:52:23.745Z,3508.00
2019-04-03T07:53:23.661Z,3464.00
2019-04-03T07:54:26.146Z,3436.00
2019-04-03T07:55:24.212Z,3388.00
2019-04-03T07:56:25.537Z,3304.00
2019-04-03T07:57:23.903Z,3224.00
2019-04-03T07:58:25.391Z,3188.00
2019-04-03T07:59:23.596Z,3152.00
2019-04-03T08:00:23.904Z,3120.00
2019-04-03T08:01:23.576Z,3100.00
2019-04-03T08:02:23.633Z,3096.00
2019-04-03T08:03:23.584Z,3104.00
2019-04-03T08:04:24.772Z,3120.00
2019-04-03T08:05:23.523Z,3144.00
2019-04-03T08:06:23.686Z,3164.00
2019-04-03T08:07:23.572Z,3160.00
2019-04-03T08:08:23.505Z,3144.00
2019-04-03T08:09:23.586Z,3132.00
2019-04-03T08:10:23.496Z,3124.00
2019-04-03T08:11:23.483Z,3120.00
2019-04-03T08:12:23.448Z,3132.00
2019-04-03T08:13:23.430Z,3112.00
2019-04-03T08:14:23.473Z,3084.00
2019-04-03T08:15:23.420Z,3060.00
2019-04-03T08:16:23.403Z,3020.00
2019-04-03T08:17:23.411Z,2916.00
2019-04-03T08:18:23.398Z,2840.00
2019-04-03T08:19:23.609Z,2600.00
2019-04-03T08:20:25.393Z,2596.00
2019-04-03T08:21:23.358Z,2396.00
2019-04-03T08:22:23.547Z,2272.00
2019-04-03T08:23:23.342Z,2104.00
2019-04-03T08:24:23.582Z,2032.00
2019-04-03T08:25:23.304Z,2028.00
2019-04-03T08:26:26.189Z,2084.00
2019-04-03T08:27:24.358Z,2300.00
2019-04-03T08:28:25.545Z,2596.00
2019-04-03T08:29:23.258Z,2804.00
2019-04-03T08:30:23.372Z,2928.00
2019-04-03T08:31:23.467Z,3132.00
2019-04-03T08:32:23.254Z,3044.00
2019-04-03T08:33:26.311Z,3208.00
2019-04-03T08:34:23.193Z,3232.00
2019-04-03T08:35:24.221Z,3232.00
2019-04-03T08:36:26.078Z,3188.00
2019-04-03T08:37:30.175Z,3172.00
2019-04-03T08:38:23.204Z,3148.00
2019-04-03T08:39:23.145Z,3160.00
2019-04-03T08:40:23.145Z,3160.00
2019-04-03T08:41:24.131Z,3160.00
2019-04-03T08:42:23.142Z,3164.00
2019-04-03T08:43:23.269Z,3168.00
2019-04-03T08:44:23.115Z,3168.00
2019-04-03T08:45:23.089Z,3176.00
2019-04-03T08:46:23.076Z,3168.00
2019-04-03T08:47:23.185Z,3136.00
2019-04-03T08:48:23.056Z,3060.00
2019-04-03T08:49:25.782Z,2976.00
2019-04-03T08:50:23.047Z,2920.00
2019-04-03T08:51:23.043Z,2856.00
2019-04-03T08:52:22.995Z,2836.00
2019-04-03T08:53:22.982Z,2832.00
2019-04-03T08:54:22.975Z,2848.00
2019-04-03T08:55:22.998Z,2868.00
2019-04-03T08:56:22.970Z,2876.00
2019-04-03T08:57:22.958Z,2864.00
2019-04-03T08:58:25.425Z,2840.00
2019-04-03T08:59:22.911Z,2824.00
2019-04-03T09:00:22.928Z,2832.00
2019-04-03T09:01:23.265Z,2724.00
2019-04-03T09:02:22.980Z,2472.00
2019-04-03T09:03:22.876Z,2480.00
2019-04-03T09:04:23.196Z,2660.00
2019-04-03T09:05:22.844Z,2752.00
2019-04-03T09:06:23.409Z,2656.00
2019-04-03T09:07:24.513Z,2740.00
2019-04-03T09:08:22.821Z,2492.00
2019-04-03T09:09:22.962Z,2264.00
2019-04-03T09:10:22.823Z,2204.00
2019-04-03T09:11:22.910Z,2156.00
2019-04-03T09:12:22.789Z,2164.00
2019-04-03T09:13:24.048Z,2152.00
2019-04-03T09:14:24.986Z,2220.00
2019-04-03T09:15:22.751Z,2340.00
2019-04-03T09:16:22.730Z,2536.00
2019-04-03T09:17:22.745Z,2640.00
2019-04-03T09:18:22.706Z,2672.00
2019-04-03T09:19:22.717Z,2844.00
2019-04-03T09:20:22.681Z,2884.00
2019-04-03T09:21:22.830Z,2960.00
2019-04-03T09:22:22.977Z,2988.00
2019-04-03T09:23:24.706Z,2980.00
2019-04-03T09:24:22.787Z,2924.00
2019-04-03T09:25:22.648Z,2808.00
2019-04-03T09:26:22.609Z,2764.00
2019-04-03T09:27:23.033Z,2712.00
2019-04-03T09:28:22.865Z,2480.00
2019-04-03T09:29:22.578Z,2488.00
2019-04-03T09:30:22.821Z,2484.00
2019-04-03T09:31:22.574Z,2516.00
2019-04-03T09:32:23.380Z,2672.00
2019-04-03T09:33:40.687Z,2568.00
2019-04-03T09:34:22.526Z,2396.00
2019-04-03T09:35:22.559Z,2676.00
2019-04-03T09:36:22.572Z,2492.00
2019-04-03T09:37:22.500Z,2668.00
2019-04-03T09:38:22.498Z,2876.00
2019-04-03T09:39:23.102Z,2924.00
2019-04-03T09:40:22.528Z,2944.00
2019-04-03T09:41:22.611Z,2956.00
2019-04-03T09:42:22.434Z,2940.00
2019-04-03T09:43:23.146Z,2688.00
2019-04-03T09:44:24.512Z,2560.00
2019-04-03T09:45:22.568Z,2560.00
2019-04-03T09:46:22.504Z,2556.00
2019-04-03T09:47:22.399Z,2604.00
2019-04-03T09:48:22.359Z,2636.00
2019-04-03T09:49:22.367Z,2672.00
2019-04-03T09:50:23.003Z,2644.00
2019-04-03T09:51:23.011Z,2688.00
2019-04-03T09:52:23.574Z,2920.00
2019-04-03T09:53:23.929Z,2976.00
2019-04-03T09:54:22.313Z,2796.00
2019-04-03T09:55:22.309Z,2812.00
2019-04-03T09:56:22.389Z,2852.00
2019-04-03T09:57:22.264Z,2924.00
2019-04-03T09:58:22.292Z,3088.00
2019-04-03T09:59:22.247Z,3072.00
2019-04-03T10:00:22.232Z,3208.00
2019-04-03T10:01:22.253Z,3252.00
2019-04-03T10:02:22.261Z,3336.00
2019-04-03T10:03:23.533Z,3176.00
2019-04-03T10:04:22.370Z,3252.00
2019-04-03T10:05:22.176Z,3288.00
2019-04-03T10:06:22.165Z,3256.00
2019-04-03T10:07:22.146Z,3152.00
2019-04-03T10:08:22.196Z,3140.00
2019-04-03T10:09:22.146Z,3076.00
2019-04-03T10:10:25.138Z,3012.00
2019-04-03T10:11:22.175Z,2980.00
2019-04-03T10:12:23.442Z,2924.00
2019-04-03T10:13:24.844Z,3044.00
2019-04-03T10:14:22.070Z,3088.00
2019-04-03T10:15:22.080Z,3084.00
2019-04-03T10:16:22.055Z,3128.00
2019-04-03T10:17:22.044Z,3172.00
2019-04-03T10:18:22.589Z,3212.00
2019-04-03T10:19:22.386Z,3292.00
2019-04-03T10:20:22.016Z,3360.00
2019-04-03T10:21:22.270Z,3328.00
2019-04-03T10:22:24.175Z,3272.00
2019-04-03T10:23:22.235Z,3220.00
2019-04-03T10:24:22.207Z,3172.00
2019-04-03T10:25:21.953Z,3144.00
2019-04-03T10:26:21.949Z,3124.00
2019-04-03T10:27:21.930Z,3128.00
2019-04-03T10:28:21.979Z,3144.00
2019-04-03T10:29:21.963Z,3164.00
2019-04-03T10:30:22.457Z,3188.00
2019-04-03T10:31:24.223Z,3212.00
2019-04-03T10:32:21.871Z,3216.00
2019-04-03T10:33:22.162Z,3236.00
2019-04-03T10:34:21.861Z,3248.00
2019-04-03T10:35:21.900Z,3260.00
2019-04-03T10:36:21.834Z,3268.00
2019-04-03T10:37:21.815Z,3304.00
2019-04-03T10:38:21.978Z,3328.00
2019-04-03T10:39:21.797Z,3284.00
2019-04-03T10:40:24.265Z,3280.00
2019-04-03T10:41:21.810Z,3280.00
2019-04-03T10:42:23.712Z,3272.00
2019-04-03T10:43:22.197Z,3276.00
2019-04-03T10:44:21.876Z,3252.00
2019-04-03T10:45:21.755Z,3200.00
2019-04-03T10:46:21.727Z,3120.00
2019-04-03T10:47:25.304Z,3020.00
2019-04-03T10:48:22.742Z,2928.00
2019-04-03T10:49:21.722Z,2844.00
2019-04-03T10:50:21.686Z,2776.00
2019-04-03T10:51:21.954Z,2720.00
2019-04-03T10:52:21.679Z,2676.00
2019-04-03T10:53:21.901Z,2648.00
2019-04-03T10:54:21.934Z,2608.00
2019-04-03T10:55:21.674Z,2568.00
2019-04-03T10:56:21.611Z,2532.00
2019-04-03T10:57:21.795Z,2488.00
2019-04-03T10:58:21.577Z,2452.00
2019-04-03T10:59:21.579Z,2436.00
2019-04-03T11:00:23.518Z,2420.00
2019-04-03T11:01:21.600Z,2408.00
2019-04-03T11:02:21.539Z,2400.00
2019-04-03T11:03:21.751Z,2416.00
2019-04-03T11:04:21.780Z,2440.00
2019-04-03T11:05:21.535Z,2472.00
2019-04-03T11:06:21.489Z,2512.00
2019-04-03T11:07:21.485Z,2568.00
2019-04-03T11:08:21.529Z,2640.00
2019-04-03T11:09:21.459Z,2712.00
2019-04-03T11:10:23.464Z,2800.00
2019-04-03T11:11:21.476Z,2900.00
2019-04-03T11:12:21.430Z,3012.00
2019-04-03T11:13:21.479Z,3116.00
2019-04-03T11:14:21.575Z,3192.00
2019-04-03T11:15:21.413Z,3260.00
2019-04-03T11:16:21.456Z,3316.00
2019-04-03T11:17:21.362Z,3344.00
2019-04-03T11:18:21.826Z,3352.00
2019-04-03T11:19:21.366Z,3308.00
2019-04-03T11:20:21.665Z,3292.00
2019-04-03T11:21:21.358Z,3284.00
2019-04-03T11:22:21.303Z,3280.00
2019-04-03T11:23:36.154Z,3276.00
2019-04-03T11:24:22.334Z,3292.00
2019-04-03T11:25:22.043Z,3312.00
2019-04-03T11:26:23.878Z,3320.00
2019-04-03T11:27:22.973Z,3296.00
2019-04-03T11:28:21.646Z,3252.00
2019-04-03T11:29:42.900Z,3232.00
2019-04-03T11:30:24.216Z,3208.00
2019-04-03T11:31:27.162Z,3176.00
2019-04-03T11:32:23.295Z,3112.00
2019-04-03T11:33:21.256Z,3056.00
2019-04-03T11:34:21.400Z,3044.00
2019-04-03T11:35:22.325Z,3080.00
2019-04-03T11:36:21.155Z,3112.00
2019-04-03T11:37:21.265Z,3120.00
2019-04-03T11:38:27.171Z,3120.00
2019-04-03T11:39:22.136Z,3140.00
2019-04-03T11:40:24.052Z,3168.00
2019-04-03T11:41:22.974Z,3204.00
2019-04-03T11:42:25.205Z,3236.00
2019-04-03T11:43:21.094Z,3232.00
2019-04-03T11:44:21.162Z,3284.00
2019-04-03T11:45:21.318Z,3348.00
2019-04-03T11:46:21.073Z,3384.00
2019-04-03T11:47:21.030Z,3428.00
2019-04-03T11:48:21.272Z,3436.00
2019-04-03T11:49:21.395Z,3484.00
2019-04-03T11:50:23.812Z,3556.00
2019-04-03T11:51:21.076Z,3684.00
2019-04-03T11:52:20.972Z,3780.00
2019-04-03T11:53:21.022Z,3852.00
2019-04-03T11:54:20.981Z,3904.00
2019-04-03T11:55:21.096Z,3792.00
2019-04-03T11:56:20.935Z,3756.00
2019-04-03T11:57:20.920Z,3708.00
2019-04-03T11:58:22.036Z,3840.00
2019-04-03T11:59:22.765Z,3892.00
2019-04-03T12:00:20.954Z,3868.00
2019-04-03T12:01:20.879Z,3848.00
2019-04-03T12:02:20.862Z,3756.00
2019-04-03T12:03:20.876Z,3752.00
2019-04-03T12:04:20.860Z,3756.00
2019-04-03T12:05:21.551Z,3736.00
2019-04-03T12:06:21.153Z,3760.00
2019-04-03T12:07:20.803Z,3816.00
2019-04-03T12:08:21.761Z,4048.00
2019-04-03T12:09:20.783Z,4256.00
2019-04-03T12:10:20.776Z,4200.00
2019-04-03T12:11:20.817Z,4348.00
2019-04-03T12:12:20.753Z,4456.00
2019-04-03T12:13:21.980Z,4248.00
2019-04-03T12:14:20.743Z,4000.00
2019-04-03T12:15:21.773Z,3780.00
2019-04-03T12:16:24.028Z,3556.00
2019-04-03T12:17:20.692Z,3516.00
2019-04-03T12:18:20.772Z,3476.00
2019-04-03T12:19:20.679Z,3460.00
2019-04-03T12:20:20.697Z,3368.00
2019-04-03T12:21:20.650Z,3328.00
2019-04-03T12:22:21.990Z,3376.00
2019-04-03T12:23:20.658Z,3528.00
2019-04-03T12:24:20.708Z,3864.00
2019-04-03T12:25:20.631Z,4032.00
2019-04-03T12:26:21.302Z,4004.00
2019-04-03T12:27:20.887Z,4088.00
2019-04-03T12:28:20.591Z,3820.00
2019-04-03T12:29:21.396Z,3628.00
2019-04-03T12:30:20.624Z,3416.00
2019-04-03T12:31:20.580Z,3088.00
2019-04-03T12:32:20.588Z,2840.00
2019-04-03T12:33:21.182Z,2664.00
2019-04-03T12:34:22.839Z,2528.00